createdAt,value
2023-02-09T00:01:21.534Z,100050.91
2023-02-09T00:03:48.339Z,100057.06
2023-02-09T00:06:17.812Z,100049.53
2023-02-09T00:08:44.851Z,100055.50
2023-02-09T00:11:22.404Z,100063.81
2023-02-09T00:13:48.927Z,100058.84
2023-02-09T00:16:15.540Z,100058.56
2023-02-09T00:18:42.042Z,100058.03
2023-02-09T00:21:10.895Z,100051.63
2023-02-09T00:23:40.716Z,100046.47
2023-02-09T00:26:10.441Z,100046.50
2023-02-09T00:28:37.587Z,100046.47
2023-02-09T00:31:12.503Z,100047.72
2023-02-09T00:33:41.796Z,100047.13
2023-02-09T00:36:11.691Z,100040.72
2023-02-09T00:38:39.142Z,100041.13
2023-02-09T00:41:06.172Z,100042.75
2023-02-09T00:43:33.445Z,100038.50
2023-02-09T00:45:59.944Z,100038.84
2023-02-09T00:48:26.714Z,100040.78
2023-02-09T00:50:54.402Z,100041.66
2023-02-09T00:53:22.115Z,100034.22
2023-02-09T00:55:48.977Z,100036.41
2023-02-09T00:58:16.035Z,100033.75
2023-02-09T01:00:42.841Z,100037.41
2023-02-09T01:03:09.580Z,100041.56
2023-02-09T01:05:40.505Z,100037.09
2023-02-09T01:08:07.227Z,100029.56
2023-02-09T01:10:34.345Z,100038.28
2023-02-09T01:13:00.800Z,100025.69
2023-02-09T01:15:28.905Z,100024.13
2023-02-09T01:17:55.356Z,100024.72
2023-02-09T01:20:21.896Z,100025.69
2023-02-09T01:22:48.389Z,100028.56
2023-02-09T01:25:14.838Z,100032.78
2023-02-09T01:27:42.296Z,100025.72
2023-02-09T01:30:09.795Z,100028.28
2023-02-09T01:32:36.926Z,100022.03
2023-02-09T01:35:04.149Z,100019.31
2023-02-09T01:37:30.624Z,100017.97
2023-02-09T01:39:57.186Z,100009.59
2023-02-09T01:42:23.648Z,100016.03
2023-02-09T01:44:50.297Z,100013.38
2023-02-09T01:47:18.780Z,100008.09
2023-02-09T01:49:48.977Z,100001.22
2023-02-09T01:52:20.501Z,100003.53
2023-02-09T01:54:52.712Z,100007.16
2023-02-09T02:01:28.917Z,99997.06
2023-02-09T02:03:55.682Z,99989.28
2023-02-09T02:06:22.236Z,99988.78
2023-02-09T02:08:58.002Z,99982.06
2023-02-09T02:11:28.137Z,99988.13
2023-02-09T02:13:54.641Z,99989.94
2023-02-09T02:16:53.579Z,99990.75
2023-02-09T02:19:43.975Z,99989.38
2023-02-09T02:22:25.542Z,99976.09
2023-02-09T02:25:10.646Z,99982.69
2023-02-09T02:28:20.015Z,99978.25
2023-02-09T02:31:18.091Z,99972.94
2023-02-09T02:34:04.780Z,99965.09
2023-02-09T02:36:55.475Z,99960.94
2023-02-09T02:39:33.501Z,99959.84
2023-02-09T02:42:33.463Z,99964.38
2023-02-09T02:45:11.192Z,99957.31
2023-02-09T02:47:42.020Z,99964.06
2023-02-09T02:50:16.778Z,99959.94
2023-02-09T02:52:47.478Z,99955.50
2023-02-09T02:55:16.692Z,99956.84
2023-02-09T02:57:47.228Z,99946.78
2023-02-09T03:00:19.092Z,99957.00
2023-02-09T03:02:53.481Z,99957.06
2023-02-09T03:05:23.883Z,99959.22
2023-02-09T03:07:50.662Z,99958.56
2023-02-09T03:10:43.613Z,99955.25
2023-02-09T03:13:12.972Z,99963.09
2023-02-09T03:15:56.972Z,99967.81
2023-02-09T03:18:39.619Z,99968.84
2023-02-09T03:21:18.888Z,99977.00
2023-02-09T03:23:53.684Z,99966.56
2023-02-09T03:26:25.186Z,99962.41
2023-02-09T03:28:56.976Z,99965.69
2023-02-09T03:31:24.814Z,99967.69
2023-02-09T03:33:51.847Z,99967.25
2023-02-09T03:36:20.361Z,99965.91
2023-02-09T03:38:46.767Z,99973.94
2023-02-09T03:41:13.245Z,99978.34
2023-02-09T03:43:58.297Z,99976.13
2023-02-09T03:46:24.777Z,99978.78
2023-02-09T03:48:51.359Z,99968.66
2023-02-09T03:51:17.796Z,99971.41
2023-02-09T03:53:44.216Z,99976.41
2023-02-09T03:56:10.633Z,99971.00
2023-02-09T03:58:37.143Z,99969.91
2023-02-09T04:01:09.268Z,99971.72
2023-02-09T04:03:36.424Z,99964.97
2023-02-09T04:06:03.668Z,99970.84
2023-02-09T04:08:30.178Z,99967.44
2023-02-09T04:10:57.551Z,99970.00
2023-02-09T04:13:25.020Z,99973.22
2023-02-09T04:15:52.000Z,99975.88
2023-02-09T04:18:18.641Z,99981.72
2023-02-09T04:20:45.861Z,99976.94
2023-02-09T04:23:12.940Z,99979.38
2023-02-09T04:25:39.623Z,99971.66
2023-02-09T04:28:06.119Z,99975.44
2023-02-09T04:30:32.685Z,99977.94
2023-02-09T04:32:59.361Z,99982.75
2023-02-09T04:35:25.979Z,99982.50
2023-02-09T04:37:52.449Z,99986.88
2023-02-09T04:40:19.294Z,99982.25
2023-02-09T04:42:46.814Z,99990.63
2023-02-09T04:45:13.382Z,99993.03
2023-02-09T04:47:39.865Z,99985.50
2023-02-09T04:50:06.512Z,99990.28
2023-02-09T04:52:33.012Z,99991.97
2023-02-09T04:54:59.469Z,99986.22
2023-02-09T04:57:44.535Z,99981.59
2023-02-09T05:00:11.655Z,99986.47
2023-02-09T05:02:38.101Z,99991.88
2023-02-09T05:05:04.782Z,99990.69
2023-02-09T05:07:31.237Z,99987.81
2023-02-09T05:09:57.669Z,99987.75
2023-02-09T05:12:24.160Z,99990.38
2023-02-09T05:14:50.680Z,99992.91
2023-02-09T05:17:20.987Z,99983.91
2023-02-09T05:19:48.643Z,99978.72
2023-02-09T05:22:15.204Z,99982.25
2023-02-09T05:24:41.650Z,99982.91
2023-02-09T05:27:08.166Z,99974.78
2023-02-09T05:29:34.671Z,99976.94
2023-02-09T05:32:01.221Z,99980.59
2023-02-09T05:34:27.671Z,99980.06
2023-02-09T05:36:54.177Z,99981.19
2023-02-09T05:39:20.640Z,99973.94
2023-02-09T05:42:05.732Z,99987.44
2023-02-09T05:44:32.240Z,99994.78
2023-02-09T05:46:58.772Z,99989.19
2023-02-09T05:49:25.312Z,99986.41
2023-02-09T05:51:51.876Z,99986.50
2023-02-09T05:54:18.354Z,99983.66
2023-02-09T05:56:44.831Z,99983.94
2023-02-09T05:59:11.282Z,99976.38
2023-02-09T06:01:37.911Z,99987.09
2023-02-09T06:04:04.541Z,99985.28
2023-02-09T06:06:31.298Z,99989.53
2023-02-09T06:08:57.787Z,99994.59
2023-02-09T06:11:24.239Z,99991.28
2023-02-09T06:13:50.706Z,99991.50
2023-02-09T06:16:17.184Z,99997.72
2023-02-09T06:18:43.608Z,100001.84
2023-02-09T06:21:12.029Z,99996.03
2023-02-09T06:23:39.370Z,100001.19
2023-02-09T06:26:11.559Z,100004.56
2023-02-09T06:28:38.426Z,100004.69
2023-02-09T06:31:06.844Z,100006.53
2023-02-09T06:33:35.451Z,100013.50
2023-02-09T06:36:02.493Z,99999.63
2023-02-09T06:38:36.622Z,100008.16
2023-02-09T06:41:04.246Z,99999.97
2023-02-09T06:43:30.745Z,99997.38
2023-02-09T06:45:57.331Z,100007.13
2023-02-09T06:48:23.826Z,100008.28
2023-02-09T06:50:50.263Z,100011.47
2023-02-09T06:53:18.645Z,100019.63
2023-02-09T06:55:45.212Z,100018.84
2023-02-09T06:58:11.682Z,100023.03
2023-02-09T07:00:38.180Z,100021.91
2023-02-09T07:03:04.728Z,100028.31
2023-02-09T07:05:31.637Z,100031.25
2023-02-09T07:07:58.256Z,100026.78
2023-02-09T07:10:24.848Z,100029.88
2023-02-09T07:12:51.519Z,100040.13
2023-02-09T07:15:18.112Z,100037.09
2023-02-09T07:17:44.887Z,100038.41
2023-02-09T07:20:11.786Z,100049.22
2023-02-09T07:22:38.383Z,100050.47
2023-02-09T07:25:05.389Z,100055.25
2023-02-09T07:27:31.947Z,100047.41
2023-02-09T07:30:00.752Z,100064.03
2023-02-09T07:32:27.799Z,100055.03
2023-02-09T07:34:54.347Z,100061.91
2023-02-09T07:37:20.795Z,100054.34
2023-02-09T07:39:47.424Z,100050.72
2023-02-09T07:42:13.969Z,100058.13
2023-02-09T07:44:48.793Z,100064.75
2023-02-09T07:47:15.243Z,100055.38
2023-02-09T07:49:41.738Z,100045.38
2023-02-09T07:52:08.187Z,100053.22
2023-02-09T07:54:34.652Z,100043.72
2023-02-09T07:57:01.132Z,100043.38
2023-02-09T07:59:27.780Z,100046.53
2023-02-09T08:01:54.240Z,100047.97
2023-02-09T08:04:20.922Z,100058.28
2023-02-09T08:06:47.409Z,100043.59
2023-02-09T08:09:18.091Z,100047.25
2023-02-09T08:11:58.750Z,100049.41
2023-02-09T08:14:31.829Z,100059.75
2023-02-09T08:17:23.591Z,100062.09
2023-02-09T08:20:02.269Z,100055.38
2023-02-09T08:22:33.557Z,100049.94
2023-02-09T08:25:02.837Z,100046.34
2023-02-09T08:27:30.220Z,100049.13
2023-02-09T08:29:58.413Z,100049.41
2023-02-09T08:32:24.869Z,100063.84
2023-02-09T08:34:51.360Z,100062.44
2023-02-09T08:37:17.871Z,100056.72
2023-02-09T08:39:45.198Z,100066.47
2023-02-09T08:42:11.692Z,100065.91
2023-02-09T08:44:38.148Z,100061.69
2023-02-09T08:47:04.840Z,100061.78
2023-02-09T08:49:31.347Z,100068.88
2023-02-09T08:51:57.794Z,100065.63
2023-02-09T08:54:25.326Z,100064.81
2023-02-09T08:56:51.758Z,100067.16
2023-02-09T08:59:20.062Z,100059.84
2023-02-09T09:01:46.694Z,100066.47
2023-02-09T09:04:13.534Z,100071.81
2023-02-09T09:06:40.055Z,100078.34
2023-02-09T09:09:06.645Z,100077.56
2023-02-09T09:11:33.208Z,100072.56
2023-02-09T09:13:59.674Z,100080.91
2023-02-09T09:16:26.171Z,100078.41
2023-02-09T09:18:52.654Z,100074.78
2023-02-09T09:21:19.418Z,100081.16
2023-02-09T09:23:46.913Z,100071.47
2023-02-09T09:26:13.806Z,100076.56
2023-02-09T09:28:40.288Z,100067.56
2023-02-09T09:31:12.918Z,100064.56
2023-02-09T09:33:40.217Z,100061.16
2023-02-09T09:36:07.568Z,100057.50
2023-02-09T09:38:35.930Z,100052.00
2023-02-09T09:41:04.792Z,100052.22
2023-02-09T09:43:39.384Z,100056.59
2023-02-09T09:46:12.054Z,100060.69
2023-02-09T09:48:45.697Z,100047.81
2023-02-09T09:51:18.604Z,100044.81
2023-02-09T09:53:49.421Z,100045.78
2023-02-09T09:56:20.042Z,100045.59
2023-02-09T09:58:47.382Z,100041.38
2023-02-09T10:01:16.023Z,100043.47
2023-02-09T10:03:42.820Z,100042.16
2023-02-09T10:06:22.889Z,100034.94
2023-02-09T10:08:55.093Z,100045.78
2023-02-09T10:11:33.118Z,100036.03
2023-02-09T10:13:59.603Z,100034.34
2023-02-09T10:16:34.427Z,100037.75
2023-02-09T10:19:05.816Z,100037.34
2023-02-09T10:21:36.738Z,100038.53
2023-02-09T10:24:12.739Z,100040.88
2023-02-09T10:26:40.744Z,100043.91
2023-02-09T10:29:13.376Z,100040.38
2023-02-09T10:31:41.406Z,100043.03
2023-02-09T10:34:17.088Z,100034.72
2023-02-09T10:36:54.308Z,100034.59
2023-02-09T10:39:39.350Z,100037.09
2023-02-09T10:42:19.220Z,100044.84
2023-02-09T10:44:50.360Z,100034.94
2023-02-09T10:47:19.815Z,100036.25
2023-02-09T10:50:07.711Z,100023.47
2023-02-09T10:52:37.152Z,100024.84
2023-02-09T10:55:17.409Z,100014.16
2023-02-09T10:57:43.896Z,100011.28
2023-02-09T11:00:16.202Z,100009.59
2023-02-09T11:02:52.236Z,100016.81
2023-02-09T11:05:21.716Z,100019.28
2023-02-09T11:07:58.055Z,100019.63
2023-02-09T11:10:27.114Z,100023.31
2023-02-09T11:12:53.571Z,100025.41
2023-02-09T11:15:26.687Z,100023.53
2023-02-09T11:18:01.184Z,100028.78
2023-02-09T11:20:35.486Z,100024.50
2023-02-09T11:23:47.048Z,100021.91
2023-02-09T11:26:32.297Z,100025.06
2023-02-09T11:29:10.503Z,100032.03
2023-02-09T11:32:01.841Z,100035.25
2023-02-09T11:34:38.088Z,100020.56
2023-02-09T11:37:20.883Z,100017.28
2023-02-09T11:39:52.634Z,100014.41
2023-02-09T11:42:45.650Z,100009.66
2023-02-09T11:45:12.094Z,100002.03
2023-02-09T11:47:58.334Z,99993.53
2023-02-09T11:50:44.320Z,99993.19
2023-02-09T11:53:23.484Z,100010.91
2023-02-09T11:55:57.507Z,100007.63
2023-02-09T11:58:51.779Z,100005.13
2023-02-09T12:01:29.730Z,99993.50
2023-02-09T12:04:03.980Z,100009.06
2023-02-09T12:06:37.536Z,100013.72
2023-02-09T12:09:37.735Z,100007.09
2023-02-09T12:12:15.326Z,99996.06
2023-02-09T12:14:49.590Z,99988.38
2023-02-09T12:17:29.652Z,99999.00
2023-02-09T12:19:59.122Z,99988.66
2023-02-09T12:22:34.863Z,99995.72
2023-02-09T12:25:10.458Z,99987.72
2023-02-09T12:27:38.947Z,99990.78
2023-02-09T12:30:42.393Z,99988.34
2023-02-09T12:33:23.914Z,99980.22
2023-02-09T12:36:09.049Z,99986.59
2023-02-09T12:38:56.333Z,99991.16
2023-02-09T12:41:28.507Z,99994.22
2023-02-09T12:44:10.267Z,99989.06
2023-02-09T12:46:51.733Z,99980.13
2023-02-09T12:49:31.991Z,99980.91
2023-02-09T12:52:01.417Z,99982.47
2023-02-09T12:54:41.461Z,99970.63
2023-02-09T12:57:17.387Z,99986.03
2023-02-09T12:59:50.077Z,99986.91
2023-02-09T13:02:38.053Z,99979.09
2023-02-09T13:05:19.716Z,99987.41
2023-02-09T13:07:53.218Z,99989.66
2023-02-09T13:10:48.262Z,99998.44
2023-02-09T13:13:19.616Z,99996.66
2023-02-09T13:16:07.008Z,99992.63
2023-02-09T13:19:00.535Z,99987.56
2023-02-09T13:22:04.679Z,99993.75
2023-02-09T13:24:41.500Z,99988.59
2023-02-09T13:27:22.809Z,99996.66
2023-02-09T13:29:57.395Z,99988.25
2023-02-09T13:32:38.162Z,99983.28
2023-02-09T13:35:21.480Z,99992.13
2023-02-09T13:37:54.119Z,99988.97
2023-02-09T13:40:26.705Z,99992.75
2023-02-09T13:42:58.964Z,99994.22
2023-02-09T13:45:26.835Z,99993.97
2023-02-09T13:47:55.470Z,99998.97
2023-02-09T13:50:24.349Z,100003.69
2023-02-09T13:52:51.126Z,100008.56
2023-02-09T13:55:25.340Z,100013.56
2023-02-09T13:58:04.413Z,100022.25
2023-02-09T14:00:40.390Z,100015.69
2023-02-09T14:03:46.960Z,100029.00
2023-02-09T14:06:39.883Z,100021.75
2023-02-09T14:09:15.578Z,100034.78
2023-02-09T14:11:51.898Z,100012.78
2023-02-09T14:14:25.998Z,100020.13
2023-02-09T14:17:24.497Z,100010.91
2023-02-09T14:19:52.824Z,100003.97
2023-02-09T14:22:39.848Z,100006.50
2023-02-09T14:25:22.469Z,100005.13
2023-02-09T14:27:49.529Z,100008.28
2023-02-09T14:30:23.353Z,100005.91
2023-02-09T14:32:56.006Z,100002.63
2023-02-09T14:35:28.792Z,99998.09
2023-02-09T14:37:58.477Z,99992.50
2023-02-09T14:40:28.110Z,99998.25
2023-02-09T14:43:12.540Z,99996.69
2023-02-09T14:45:48.515Z,99986.09
2023-02-09T14:48:27.368Z,99983.72
2023-02-09T14:50:56.485Z,99984.94
2023-02-09T14:53:26.151Z,99987.75
2023-02-09T14:55:56.503Z,99986.59
2023-02-09T14:58:26.301Z,99998.13
2023-02-09T15:00:55.223Z,100002.41
2023-02-09T15:03:22.252Z,100002.97
2023-02-09T15:05:51.187Z,100004.53
2023-02-09T15:08:21.143Z,100004.56
2023-02-09T15:11:28.422Z,99996.38
2023-02-09T15:14:03.635Z,99997.28
2023-02-09T15:16:31.100Z,99989.91
2023-02-09T15:18:57.657Z,99983.28
2023-02-09T15:21:24.359Z,99978.69
2023-02-09T15:23:50.805Z,99978.16
2023-02-09T15:26:18.657Z,99977.41
2023-02-09T15:28:45.094Z,99986.19
2023-02-09T15:31:15.954Z,99990.19
2023-02-09T15:33:43.095Z,99988.94
2023-02-09T15:36:19.020Z,99991.75
2023-02-09T15:38:45.502Z,99983.53
2023-02-09T15:41:30.744Z,99991.69
2023-02-09T15:44:15.913Z,99988.16
2023-02-09T15:47:01.893Z,99997.09
2023-02-09T15:49:30.903Z,100007.56
2023-02-09T15:51:57.363Z,100005.34
2023-02-09T15:54:29.570Z,100003.88
2023-02-09T15:56:56.001Z,100014.75
2023-02-09T15:59:23.630Z,100018.88
2023-02-09T16:01:50.791Z,100030.91
2023-02-09T16:04:18.174Z,100017.63
2023-02-09T16:06:53.130Z,100011.47
2023-02-09T16:09:23.515Z,100011.03
2023-02-09T16:11:50.075Z,100030.09
2023-02-09T16:14:20.298Z,100029.78
2023-02-09T16:16:47.449Z,100032.31
2023-02-09T16:19:14.612Z,100048.13
2023-02-09T16:21:44.372Z,100037.34
2023-02-09T16:24:30.263Z,100033.28
2023-02-09T16:26:59.830Z,100035.75
2023-02-09T16:29:26.410Z,100035.59
2023-02-09T16:31:53.083Z,100041.28
2023-02-09T16:34:19.620Z,100046.78
2023-02-09T16:36:48.438Z,100043.16
2023-02-09T16:39:20.431Z,100048.66
2023-02-09T16:41:48.074Z,100052.25
2023-02-09T16:44:26.993Z,100065.16
2023-02-09T16:46:56.636Z,100068.16
2023-02-09T16:49:37.449Z,100067.47
2023-02-09T16:52:12.513Z,100057.59
2023-02-09T16:54:54.677Z,100053.81
2023-02-09T16:57:25.831Z,100047.88
2023-02-09T16:59:53.416Z,100054.00
2023-02-09T17:02:29.155Z,100053.31
2023-02-09T17:04:55.759Z,100068.72
2023-02-09T17:07:28.141Z,100063.78
2023-02-09T17:09:57.403Z,100065.88
2023-02-09T17:12:23.934Z,100066.38
2023-02-09T17:14:50.446Z,100062.63
2023-02-09T17:17:20.097Z,100067.16
2023-02-09T17:19:49.491Z,100077.78
2023-02-09T17:22:16.362Z,100079.84
2023-02-09T17:24:42.944Z,100091.19
2023-02-09T17:27:10.141Z,100094.63
2023-02-09T17:29:36.589Z,100094.81
2023-02-09T17:32:03.516Z,100102.72
2023-02-09T17:34:30.193Z,100099.31
2023-02-09T17:36:57.993Z,100111.91
2023-02-09T17:39:24.967Z,100109.53
2023-02-09T17:41:51.700Z,100107.97
2023-02-09T17:44:43.687Z,100114.53
2023-02-09T17:47:20.039Z,100113.59
2023-02-09T17:49:46.986Z,100124.75
2023-02-09T17:52:20.157Z,100131.53
2023-02-09T17:54:47.567Z,100123.53
2023-02-09T17:57:16.215Z,100127.25
2023-02-09T17:59:43.236Z,100129.19
2023-02-09T18:02:19.603Z,100138.25
2023-02-09T18:04:46.242Z,100135.53
2023-02-09T18:07:14.468Z,100131.09
2023-02-09T18:09:40.942Z,100139.22
2023-02-09T18:12:16.723Z,100128.56
2023-02-09T18:14:43.154Z,100135.66
2023-02-09T18:17:09.689Z,100134.81
2023-02-09T18:19:36.235Z,100135.97
2023-02-09T18:22:02.908Z,100153.78
2023-02-09T18:24:34.863Z,100150.59
2023-02-09T18:27:01.970Z,100150.41
2023-02-09T18:29:31.330Z,100149.56
2023-02-09T18:32:00.105Z,100153.38
2023-02-09T18:34:27.640Z,100149.50
2023-02-09T18:36:54.156Z,100162.63
2023-02-09T18:39:20.665Z,100151.59
2023-02-09T18:41:53.830Z,100157.91
2023-02-09T18:44:24.248Z,100167.03
2023-02-09T18:46:50.719Z,100167.50
2023-02-09T18:49:17.156Z,100175.91
2023-02-09T18:51:43.626Z,100183.66
2023-02-09T18:54:10.095Z,100193.47
2023-02-09T18:56:36.561Z,100192.78
2023-02-09T18:59:03.036Z,100193.84
2023-02-09T19:01:29.509Z,100197.13
2023-02-09T19:03:56.016Z,100194.97
2023-02-09T19:06:25.181Z,100206.75
2023-02-09T19:08:52.291Z,100207.44
2023-02-09T19:11:21.325Z,100202.03
2023-02-09T19:14:07.134Z,100207.31
2023-02-09T19:16:35.386Z,100201.88
2023-02-09T19:19:01.906Z,100198.81
2023-02-09T19:21:28.890Z,100201.28
2023-02-09T19:23:55.510Z,100204.81
2023-02-09T19:26:22.058Z,100199.47
2023-02-09T19:28:48.657Z,100210.47
2023-02-09T19:31:16.941Z,100215.69
2023-02-09T19:33:43.652Z,100213.59
2023-02-09T19:36:10.249Z,100226.88
2023-02-09T19:38:36.716Z,100210.66
2023-02-09T19:41:10.655Z,100224.38
2023-02-09T19:43:39.304Z,100214.72
2023-02-09T19:46:06.345Z,100222.03
2023-02-09T19:48:33.060Z,100220.72
2023-02-09T19:50:59.919Z,100223.03
2023-02-09T19:53:27.203Z,100227.38
2023-02-09T19:55:54.408Z,100223.75
2023-02-09T19:58:24.031Z,100220.19
2023-02-09T20:00:51.883Z,100227.78
2023-02-09T20:03:18.774Z,100225.84
2023-02-09T20:05:45.935Z,100233.22
2023-02-09T20:08:15.715Z,100238.13
2023-02-09T20:10:43.998Z,100241.50
2023-02-09T20:13:12.826Z,100242.91
2023-02-09T20:15:43.863Z,100244.72
2023-02-09T20:18:12.725Z,100233.03
2023-02-09T20:20:41.956Z,100243.63
2023-02-09T20:23:09.491Z,100240.94
2023-02-09T20:25:35.966Z,100246.59
2023-02-09T20:28:02.760Z,100257.38
2023-02-09T20:30:29.259Z,100257.97
2023-02-09T20:32:55.741Z,100258.50
2023-02-09T20:35:22.400Z,100259.84
2023-02-09T20:37:49.327Z,100262.69
2023-02-09T20:40:15.938Z,100266.03
2023-02-09T20:43:00.854Z,100262.94
2023-02-09T20:45:46.018Z,100263.59
2023-02-09T20:48:13.673Z,100269.59
2023-02-09T20:50:40.192Z,100275.53
2023-02-09T20:53:06.684Z,100271.03
2023-02-09T20:55:33.186Z,100272.06
2023-02-09T20:57:59.671Z,100281.47
2023-02-09T21:00:26.203Z,100280.13
2023-02-09T21:02:52.683Z,100284.53
2023-02-09T21:05:19.180Z,100281.66
2023-02-09T21:07:45.643Z,100285.88
2023-02-09T21:10:12.976Z,100294.63
2023-02-09T21:12:39.534Z,100291.81
2023-02-09T21:15:06.437Z,100286.13
2023-02-09T21:17:32.980Z,100289.13
2023-02-09T21:19:59.438Z,100286.38
2023-02-09T21:22:25.884Z,100285.69
2023-02-09T21:24:52.332Z,100292.41
2023-02-09T21:27:19.264Z,100285.22
2023-02-09T21:29:45.822Z,100293.88
2023-02-09T21:32:12.285Z,100292.31
2023-02-09T21:34:38.764Z,100290.03
2023-02-09T21:37:07.908Z,100292.13
2023-02-09T21:39:34.501Z,100292.16
2023-02-09T21:42:19.467Z,100301.44
2023-02-09T21:44:46.997Z,100301.91
2023-02-09T21:47:13.545Z,100306.34
2023-02-09T21:49:40.067Z,100296.97
2023-02-09T21:52:06.560Z,100297.97
2023-02-09T21:54:33.873Z,100304.28
2023-02-09T21:57:01.654Z,100303.09
2023-02-09T21:59:28.805Z,100296.59
2023-02-09T22:01:55.539Z,100299.31
2023-02-09T22:04:22.097Z,100294.44
2023-02-09T22:06:49.172Z,100301.25
2023-02-09T22:09:15.969Z,100298.88
2023-02-09T22:11:42.401Z,100299.78
2023-02-09T22:14:09.178Z,100290.47
2023-02-09T22:16:35.682Z,100304.06
2023-02-09T22:19:02.188Z,100291.03
2023-02-09T22:21:28.658Z,100293.81
2023-02-09T22:23:55.311Z,100300.34
2023-02-09T22:26:21.827Z,100298.88
2023-02-09T22:28:48.672Z,100302.28
2023-02-09T22:31:17.571Z,100306.25
2023-02-09T22:33:44.530Z,100306.81
2023-02-09T22:36:13.671Z,100298.88
2023-02-09T22:38:40.578Z,100308.72
2023-02-09T22:41:21.201Z,100314.47
2023-02-09T22:43:59.553Z,100317.66
2023-02-09T22:46:28.848Z,100316.75
2023-02-09T22:48:58.489Z,100315.50
2023-02-09T22:51:30.785Z,100308.59
2023-02-09T22:53:58.881Z,100305.22
2023-02-09T22:56:26.278Z,100322.09
2023-02-09T22:58:53.987Z,100319.69
2023-02-09T23:01:21.017Z,100329.16
2023-02-09T23:03:47.795Z,100317.63
2023-02-09T23:06:17.362Z,100317.31
2023-02-09T23:08:44.292Z,100315.88
2023-02-09T23:11:14.682Z,100321.66
2023-02-09T23:13:41.844Z,100320.78
2023-02-09T23:16:20.590Z,100316.84
2023-02-09T23:18:55.877Z,100331.03
2023-02-09T23:21:25.115Z,100324.09
2023-02-09T23:23:52.192Z,100331.69
2023-02-09T23:26:19.797Z,100327.38
2023-02-09T23:28:47.936Z,100323.53
2023-02-09T23:31:16.776Z,100314.88
2023-02-09T23:33:43.503Z,100325.88
2023-02-09T23:36:31.655Z,100313.72
2023-02-09T23:39:00.958Z,100310.31
2023-02-09T23:41:27.935Z,100320.56
2023-02-09T23:43:55.214Z,100327.47
2023-02-09T23:46:26.740Z,100324.81
2023-02-09T23:48:55.075Z,100314.19
2023-02-09T23:51:28.435Z,100322.19
2023-02-09T23:53:57.766Z,100321.56
2023-02-09T23:56:24.967Z,100321.88
2023-02-09T23:58:53.095Z,100324.03
